Terminal Aerodrome Forecast
Issued by NWS

Home | Current Version | Previous Version | Text Only | Print | Product List | Glossary Off
Versions: 1 2 3 4 5 6 7 8 9 10 11 12 13 14 15 16 17 18 19

000
FTUS43 KFGF 281400 AAB
TAFBJI
TAF AMD
KBJI 281452Z 2815/2912 29013G17KT P6SM OVC008
      TEMPO 2815/2816 -SHRA OVC012
     FM281600 29016G25KT P6SM OVC012
     FM290100 30013KT P6SM OVC025=

USA.gov is the U.S. government's official web portal to all federal, state and local government web resources and services.